Time;durP1;ratioP1;P1;durP2;ratioP2;P2;SDS_P1;SDS_P2;PMS_P1;PMS_P2;Temp;Humidity;BMP_temperature;BMP_pressure;BME280_temperature;BME280_humidity;BME280_pressure;Samples;Min_cycle;Max_cycle;Signal;HPM_P1;HPM_P2
2023/09/27 00:02:26;;;;;;;12.80;11.43;;;;;;;18.86;78.29;99714.31;5129824;27;20193;-75
2023/09/27 00:04:53;;;;;;;13.85;11.27;;;;;;;18.79;78.48;99709.59;5147471;27;20039;-75
2023/09/27 00:07:19;;;;;;;16.20;14.65;;;;;;;18.81;78.23;99710.31;5147870;27;20063;-75
2023/09/27 00:09:46;;;;;;;18.45;14.32;;;;;;;18.79;78.34;99709.59;5129276;27;20096;-75
2023/09/27 00:12:13;;;;;;;14.05;12.65;;;;;;;18.79;78.09;99702.38;5128981;27;20307;-75
2023/09/27 00:14:39;;;;;;;14.52;12.82;;;;;;;18.73;78.45;99708.25;5147714;27;20047;-75
2023/09/27 00:17:06;;;;;;;14.57;13.00;;;;;;;17.79;78.20;99544.38;5146801;27;20321;-75
2023/09/27 00:19:34;;;;;;;14.45;12.70;;;;;;;18.78;78.15;99708.72;5147132;27;20080;-75
2023/09/27 00:22:01;;;;;;;15.40;13.77;;;;;;;18.74;78.21;99696.53;5147358;27;20191;-75
2023/09/27 00:24:28;;;;;;;17.10;14.27;;;;;;;18.26;78.50;99624.47;5147127;27;20039;-75
2023/09/27 00:26:54;;;;;;;14.10;12.63;;;;;;;18.67;78.44;99703.41;5146853;27;20134;-75
2023/09/27 00:29:21;;;;;;;14.48;12.70;;;;;;;18.68;78.67;99706.94;5128875;27;20184;-74
2023/09/27 00:31:48;;;;;;;12.50;11.23;;;;;;;18.63;78.48;99707.31;5146855;27;20047;-75
2023/09/27 00:34:15;;;;;;;13.52;12.23;;;;;;;18.55;78.03;99699.06;5147267;27;20046;-75
2023/09/27 00:36:43;;;;;;;12.52;11.18;;;;;;;18.31;78.68;99652.75;5146843;27;20051;-74
2023/09/27 00:39:10;;;;;;;14.20;11.75;;;;;;;18.58;78.34;99696.97;5147037;27;20306;-74
2023/09/27 00:41:37;;;;;;;11.65;10.40;;;;;;;18.51;78.78;99693.06;5128475;27;20046;-74
2023/09/27 00:44:04;;;;;;;12.70;11.40;;;;;;;18.22;78.51;99655.19;5146946;27;20348;-74
2023/09/27 00:46:32;;;;;;;14.25;11.05;;;;;;;18.18;78.64;99659.13;5128673;27;20313;-75
2023/09/27 00:48:59;;;;;;;13.38;10.88;;;;;;;18.45;78.77;99692.72;5146637;27;20039;-75
2023/09/27 00:51:26;;;;;;;14.43;11.10;;;;;;;18.40;78.48;99689.56;5128406;28;20108;-75
2023/09/27 00:53:56;;;;;;;11.98;10.80;;;;;;;18.33;77.95;99677.63;5128618;28;20043;-75
2023/09/27 00:56:24;;;;;;;12.43;11.20;;;;;;;18.43;78.44;99702.72;5146402;28;20047;-74
2023/09/27 00:58:52;;;;;;;13.10;11.75;;;;;;;18.40;78.68;99697.59;5128526;28;20043;-75
2023/09/27 01:01:18;;;;;;;13.00;11.70;;;;;;;18.40;78.59;99693.09;5129658;28;20035;-75
2023/09/27 01:03:46;;;;;;;12.50;11.30;;;;;;;18.34;78.33;99693.59;5128518;28;20035;-74
2023/09/27 01:06:13;;;;;;;13.45;12.15;;;;;;;18.35;78.46;99697.13;5146809;28;20110;-75
2023/09/27 01:08:41;;;;;;;12.60;11.30;;;;;;;18.30;78.11;99699.31;5146759;28;20039;-75
2023/09/27 01:11:09;;;;;;;15.45;11.63;;;;;;;18.23;79.22;99696.28;5129309;28;20062;-74
2023/09/27 01:13:36;;;;;;;12.88;11.65;;;;;;;18.26;78.60;99693.38;5146839;28;20058;-75
2023/09/27 01:16:02;;;;;;;14.02;12.05;;;;;;;18.25;79.16;99691.66;5146390;28;20039;-74
2023/09/27 01:18:29;;;;;;;14.85;12.05;;;;;;;18.26;78.10;99688.00;5146869;28;20043;-75
2023/09/27 01:20:56;;;;;;;13.73;11.13;;;;;;;18.17;77.89;99686.91;5128339;28;20051;-75
2023/09/27 01:23:24;;;;;;;12.70;11.00;;;;;;;18.17;78.53;99684.22;5128401;28;20340;-75
2023/09/27 01:25:58;;;;;;;13.73;12.32;;;;;;;18.15;78.70;99683.50;5146901;28;20046;-75
2023/09/27 01:28:26;;;;;;;13.13;11.25;;;;;;;18.14;78.27;99683.63;5146638;28;20051;-75
2023/09/27 01:30:52;;;;;;;13.00;11.75;;;;;;;18.12;78.64;99683.75;5128683;28;20138;-75
2023/09/27 01:33:19;;;;;;;13.00;11.73;;;;;;;18.13;78.43;99680.09;5146582;28;20088;-75
2023/09/27 01:35:46;;;;;;;14.20;12.07;;;;;;;17.25;78.89;99537.97;5146548;28;20088;-75
2023/09/27 01:38:13;;;;;;;12.50;10.85;;;;;;;18.09;78.50;99675.94;5147310;27;20035;-75
2023/09/27 01:40:43;;;;;;;13.45;12.05;;;;;;;18.10;78.98;99674.13;5150448;27;20299;-75
2023/09/27 01:43:10;;;;;;;12.68;11.48;;;;;;;17.76;78.80;99633.09;5132150;27;20134;-75
2023/09/27 01:45:37;;;;;;;14.63;13.07;;;;;;;18.04;78.76;99678.16;5149964;27;20051;-75
2023/09/27 01:48:05;;;;;;;13.27;11.80;;;;;;;18.04;78.63;99675.47;5150082;27;20092;-75
2023/09/27 01:50:34;;;;;;;12.85;11.63;;;;;;;18.00;78.77;99676.69;5150275;27;20122;-75
2023/09/27 01:53:01;;;;;;;13.98;12.68;;;;;;;17.98;78.99;99677.81;5128371;28;20127;-74
2023/09/27 01:55:27;;;;;;;13.23;11.93;;;;;;;17.98;78.94;99678.66;5128533;28;20035;-75
2023/09/27 01:57:56;;;;;;;13.02;11.75;;;;;;;17.97;78.84;99676.94;5128787;28;20039;-75
2023/09/27 02:00:23;;;;;;;14.38;11.82;;;;;;;17.91;78.87;99680.13;5129800;28;20044;-75
2023/09/27 02:02:51;;;;;;;13.93;12.63;;;;;;;17.90;78.82;99675.75;5128363;28;20036;-75
2023/09/27 02:05:18;;;;;;;16.25;11.20;;;;;;;17.91;78.54;99680.13;5129127;28;20325;-75
2023/09/27 02:07:44;;;;;;;13.35;12.05;;;;;;;17.88;78.96;99678.53;5129108;28;20035;-75
2023/09/27 02:10:13;;;;;;;14.98;12.20;;;;;;;17.84;78.78;99677.09;5128483;28;20081;-75
2023/09/27 02:12:40;;;;;;;13.48;11.98;;;;;;;17.87;78.70;99678.66;5128226;28;20043;-75
2023/09/27 02:15:10;;;;;;;13.23;11.50;;;;;;;17.81;78.78;99682.69;5129282;28;20061;-75
2023/09/27 02:17:38;;;;;;;14.05;12.52;;;;;;;16.87;79.07;99516.88;5129288;28;20043;-75
2023/09/27 02:20:09;;;;;;;13.80;12.40;;;;;;;16.04;79.25;99380.66;5129070;28;20053;-75
2023/09/27 02:22:36;;;;;;;13.05;11.80;;;;;;;17.82;78.89;99679.03;5129260;28;20084;-75
2023/09/27 02:25:04;;;;;;;12.93;11.63;;;;;;;17.78;78.96;99682.94;5128215;28;20039;-75
2023/09/27 02:27:31;;;;;;;14.40;12.88;;;;;;;16.98;79.39;99559.72;5129152;28;20053;-75
2023/09/27 02:29:57;;;;;;;13.80;12.15;;;;;;;17.39;79.66;99625.28;5128433;28;20292;-74
2023/09/27 02:32:26;;;;;;;13.52;11.27;;;;;;;17.68;79.36;99670.38;5128881;28;20035;-75
2023/09/27 02:34:52;;;;;;;19.10;14.18;;;;;;;17.70;79.15;99676.47;5129022;28;20047;-75
2023/09/27 02:37:20;;;;;;;18.63;16.00;;;;;;;17.66;79.41;99673.19;5127967;28;20039;-74
2023/09/27 02:39:48;;;;;;;15.95;14.25;;;;;;;17.62;78.86;99669.91;5127819;28;20077;-74
2023/09/27 02:42:15;;;;;;;19.00;13.52;;;;;;;17.66;78.83;99672.34;5128766;28;20052;-75
2023/09/27 02:44:42;;;;;;;13.80;12.30;;;;;;;17.33;78.64;99624.91;5110971;28;20221;-75
2023/09/27 02:47:09;;;;;;;13.00;11.75;;;;;;;17.33;79.00;99628.44;5128727;28;20100;-74
2023/09/27 02:49:37;;;;;;;13.18;11.82;;;;;;;17.51;79.14;99671.69;5128967;28;20234;-74
2023/09/27 02:52:06;;;;;;;13.55;12.15;;;;;;;17.52;79.01;99671.56;5138573;27;20334;-75
2023/09/27 02:54:33;;;;;;;12.07;10.85;;;;;;;17.49;78.52;99666.44;5149637;27;20092;-75
2023/09/27 02:57:00;;;;;;;13.30;11.90;;;;;;;17.48;78.80;99662.06;5149012;27;20287;-75
2023/09/27 02:59:28;;;;;;;11.80;10.57;;;;;;;17.46;78.19;99669.38;5149227;27;20050;-74
2023/09/27 03:01:55;;;;;;;12.50;11.23;;;;;;;17.44;78.93;99667.78;5149271;27;20071;-74
2023/09/27 03:04:22;;;;;;;13.48;11.43;;;;;;;17.42;78.61;99670.59;5130984;27;20040;-75
2023/09/27 03:06:50;;;;;;;14.40;11.32;;;;;;;17.40;78.25;99669.00;5149231;27;20064;-75
2023/09/27 03:09:16;;;;;;;14.57;12.18;;;;;;;17.07;77.72;99627.78;5131074;27;20248;-75
2023/09/27 03:11:43;;;;;;;13.82;11.13;;;;;;;17.33;78.20;99675.81;5149034;27;20053;-75
2023/09/27 03:14:10;;;;;;;13.10;11.77;;;;;;;17.35;78.36;99679.22;5130631;27;20042;-75
2023/09/27 03:16:39;;;;;;;13.38;11.98;;;;;;;16.95;78.47;99628.72;5130555;27;20043;-75
2023/09/27 03:19:06;;;;;;;13.60;11.57;;;;;;;17.30;78.34;99685.78;5130461;27;20042;-74
2023/09/27 03:21:33;;;;;;;13.25;11.80;;;;;;;17.29;78.27;99678.72;5148442;27;20084;-75
2023/09/27 03:24:01;;;;;;;13.75;12.35;;;;;;;17.26;78.64;99678.97;5148947;27;20111;-74
2023/09/27 03:26:27;;;;;;;13.48;11.45;;;;;;;17.23;78.34;99681.03;5131156;27;20039;-74
2023/09/27 03:28:54;;;;;;;13.23;11.82;;;;;;;17.05;78.17;99655.63;5130562;27;20198;-75
2023/09/27 03:31:21;;;;;;;14.50;11.95;;;;;;;15.45;77.67;99387.84;5148618;27;20043;-75
2023/09/27 03:33:47;;;;;;;13.55;12.10;;;;;;;17.18;78.85;99678.66;5147725;27;20096;-74
2023/09/27 03:36:14;;;;;;;13.98;12.52;;;;;;;17.14;78.58;99693.28;5148517;27;20197;-75
2023/09/27 03:38:42;;;;;;;13.23;11.93;;;;;;;16.98;78.49;99649.91;5130149;27;20084;-74
2023/09/27 03:41:11;;;;;;;13.35;11.57;;;;;;;16.02;78.60;99499.38;5130831;27;20039;-75
2023/09/27 03:43:38;;;;;;;12.60;11.30;;;;;;;17.10;78.51;99683.75;5130176;27;20035;-75
2023/09/27 03:46:05;;;;;;;13.32;12.00;;;;;;;16.78;78.67;99631.84;5148284;27;20047;-75
2023/09/27 03:48:32;;;;;;;13.70;12.30;;;;;;;16.76;78.42;99623.91;5130510;27;20039;-75
2023/09/27 03:50:59;;;;;;;13.02;11.73;;;;;;;16.68;78.67;99618.31;5129928;27;20050;-75
2023/09/27 03:53:26;;;;;;;15.07;12.70;;;;;;;17.03;78.63;99679.84;5130149;27;20099;-75
2023/09/27 03:55:53;;;;;;;12.10;10.75;;;;;;;17.01;78.24;99676.44;5129914;27;20222;-75
2023/09/27 03:58:21;;;;;;;14.77;13.23;;;;;;;16.98;78.60;99679.34;5147685;27;20047;-75
2023/09/27 04:00:48;;;;;;;15.77;12.43;;;;;;;16.97;78.50;99686.53;5147290;27;20054;-75
2023/09/27 04:03:15;;;;;;;15.90;12.38;;;;;;;16.96;78.24;99683.97;5148101;27;20043;-74
2023/09/27 04:05:42;;;;;;;14.63;12.27;;;;;;;16.94;78.51;99685.91;5147992;27;20081;-75
2023/09/27 04:08:10;;;;;;;12.93;11.63;;;;;;;16.94;78.32;99684.09;5129770;27;20095;-75
2023/09/27 04:10:37;;;;;;;13.07;11.82;;;;;;;16.90;79.13;99684.44;5147399;27;20042;-75
2023/09/27 04:13:05;;;;;;;15.05;12.60;;;;;;;16.88;78.70;99689.91;5147661;27;20096;-75
2023/09/27 04:15:34;;;;;;;13.98;12.57;;;;;;;16.90;78.61;99687.97;5130267;27;20067;-74
2023/09/27 04:18:00;;;;;;;13.98;12.65;;;;;;;16.89;78.93;99698.78;5147825;27;20043;-75
2023/09/27 04:20:27;;;;;;;16.63;14.57;;;;;;;16.88;79.37;99703.28;5129640;27;20088;-75
2023/09/27 04:22:54;;;;;;;15.65;14.05;;;;;;;16.87;79.07;99703.41;5147803;27;20061;-75
2023/09/27 04:25:21;;;;;;;14.77;12.98;;;;;;;16.87;78.63;99706.94;5129656;27;20299;-75
2023/09/27 04:27:49;;;;;;;14.45;12.55;;;;;;;16.46;79.32;99643.13;5147199;27;20039;-75
2023/09/27 04:30:19;;;;;;;14.05;12.70;;;;;;;16.83;79.20;99708.13;5147650;27;20055;-75
2023/09/27 04:32:50;;;;;;;15.25;13.65;;;;;;;16.81;79.15;99709.22;5147609;27;20039;-75
2023/09/27 04:35:17;;;;;;;13.27;11.85;;;;;;;16.81;79.13;99704.72;5147530;27;20043;-75
2023/09/27 04:37:44;;;;;;;16.05;13.07;;;;;;;16.77;79.18;99707.75;5113301;27;20061;-75
2023/09/27 04:40:12;;;;;;;13.20;11.80;;;;;;;16.74;79.39;99700.81;5129303;27;20043;-75
2023/09/27 04:42:39;;;;;;;14.30;12.70;;;;;;;16.75;79.33;99728.41;5147616;27;20051;-75
2023/09/27 04:45:07;;;;;;;16.52;12.85;;;;;;;16.31;79.16;99636.22;5147487;27;20059;-74
2023/09/27 04:47:33;;;;;;;15.60;14.00;;;;;;;15.15;79.33;99449.69;5129293;28;20121;-75
2023/09/27 04:50:02;;;;;;;15.07;13.50;;;;;;;14.95;78.58;99413.78;5147587;27;20100;-75
2023/09/27 04:52:29;;;;;;;15.52;12.43;;;;;;;16.76;79.39;99716.75;5146655;28;20323;-75
2023/09/27 04:54:56;;;;;;;16.73;15.10;;;;;;;16.73;79.34;99715.16;5147537;28;20054;-75
2023/09/27 04:57:24;;;;;;;17.13;15.38;;;;;;;16.72;79.67;99718.78;5147907;28;20227;-75
2023/09/27 04:59:52;;;;;;;16.92;13.52;;;;;;;16.03;80.05;99608.88;5146777;28;20035;-75
2023/09/27 05:02:19;;;;;;;14.82;13.18;;;;;;;16.69;79.86;99727.06;5147423;28;20049;-74
2023/09/27 05:04:47;;;;;;;14.38;12.88;;;;;;;16.68;80.14;99720.84;5129150;28;20219;-75
2023/09/27 05:07:15;;;;;;;13.98;12.68;;;;;;;16.67;79.70;99715.59;5147247;28;20039;-75
2023/09/27 05:09:42;;;;;;;14.63;12.85;;;;;;;16.68;79.88;99717.31;5129798;28;20039;-75
2023/09/27 05:12:09;;;;;;;13.50;12.20;;;;;;;16.65;79.89;99722.88;5147097;27;20046;-74
2023/09/27 05:14:35;;;;;;;13.98;12.55;;;;;;;16.57;80.19;99707.38;5150459;27;20062;-75
2023/09/27 05:17:02;;;;;;;13.32;11.88;;;;;;;16.23;80.16;99652.84;5151452;27;20039;-75
2023/09/27 05:19:29;;;;;;;13.82;12.60;;;;;;;16.63;80.16;99719.44;5151037;27;20053;-74
2023/09/27 05:21:56;;;;;;;13.20;11.88;;;;;;;16.19;79.72;99651.38;5150838;27;20314;-75
2023/09/27 05:24:24;;;;;;;14.05;12.65;;;;;;;16.64;79.75;99729.19;5150956;27;20126;-75
2023/09/27 05:26:52;;;;;;;14.88;12.40;;;;;;;16.64;79.90;99727.38;5151538;27;20058;-75
2023/09/27 05:29:20;;;;;;;16.30;14.07;;;;;;;16.62;79.52;99733.78;5133790;27;20039;-75
2023/09/27 05:31:47;;;;;;;14.07;12.70;;;;;;;16.62;79.55;99733.78;5133137;27;20042;-75
2023/09/27 05:34:14;;;;;;;15.40;12.43;;;;;;;16.61;79.28;99738.28;5132933;27;20087;-74
2023/09/27 05:36:41;;;;;;;12.73;11.38;;;;;;;16.62;79.13;99728.44;5151165;27;20043;-75
2023/09/27 05:39:09;;;;;;;12.05;10.95;;;;;;;16.56;77.54;99734.25;5151808;27;20160;-75
2023/09/27 05:41:37;;;;;;;14.93;11.70;;;;;;;16.55;77.17;99738.75;5132941;27;20255;-75
2023/09/27 05:44:04;;;;;;;12.18;10.38;;;;;;;16.52;76.47;99738.13;5133644;27;20054;-75
2023/09/27 05:46:33;;;;;;;14.25;11.20;;;;;;;16.07;76.22;99672.81;5150934;27;20043;-75
2023/09/27 05:49:01;;;;;;;15.23;9.38;;;;;;;16.42;77.36;99721.03;5132776;27;20237;-75
2023/09/27 05:51:29;;;;;;;12.77;10.27;;;;;;;16.55;77.34;99743.25;5151569;27;20173;-75
2023/09/27 05:53:56;;;;;;;12.20;9.77;;;;;;;16.61;77.51;99748.16;5133322;27;20039;-74
2023/09/27 05:56:22;;;;;;;13.68;11.48;;;;;;;16.46;75.38;99750.13;5151342;27;20120;-75
2023/09/27 05:58:51;;;;;;;13.98;10.43;;;;;;;15.98;74.89;99691.22;5151385;27;20066;-75
2023/09/27 06:01:19;;;;;;;11.50;10.30;;;;;;;16.41;74.84;99749.59;5133366;27;20031;-75
2023/09/27 06:03:47;;;;;;;14.32;10.10;;;;;;;16.43;75.56;99749.50;5132747;27;20306;-75
2023/09/27 06:06:14;;;;;;;11.60;10.43;;;;;;;15.46;74.22;99589.88;5132643;27;20035;-74
2023/09/27 06:08:42;;;;;;;12.23;9.40;;;;;;;16.49;74.99;99749.03;5132820;27;20340;-74
2023/09/27 06:11:09;;;;;;;12.18;10.10;;;;;;;16.57;75.79;99754.69;5133681;27;20079;-75
2023/09/27 06:13:36;;;;;;;12.80;10.13;;;;;;;16.58;74.99;99757.25;5132769;27;20039;-74
2023/09/27 06:16:13;;;;;;;14.27;11.05;;;;;;;16.63;75.37;99763.13;5132407;27;20299;-75
2023/09/27 06:18:39;;;;;;;13.98;9.85;;;;;;;16.70;75.95;99765.38;5133033;27;20049;-74
2023/09/27 06:21:07;;;;;;;13.40;11.13;;;;;;;16.72;76.65;99758.94;5132463;27;20054;-75
2023/09/27 06:23:33;;;;;;;12.93;10.25;;;;;;;16.73;75.51;99762.47;5150279;27;20192;-75
2023/09/27 06:26:01;;;;;;;13.70;10.10;;;;;;;16.77;74.84;99766.63;5149933;27;20066;-75
2023/09/27 06:28:27;;;;;;;12.43;9.88;;;;;;;16.82;75.42;99768.00;5150057;27;20072;-75
2023/09/27 06:30:54;;;;;;;12.05;10.70;;;;;;;16.14;75.64;99648.19;5150181;27;20303;-75
2023/09/27 06:33:22;;;;;;;13.30;10.70;;;;;;;15.14;74.23;99473.84;5150451;27;20088;-75
2023/09/27 06:35:49;;;;;;;19.25;11.43;;;;;;;17.02;74.03;99785.25;5132477;27;20035;-75
2023/09/27 06:38:19;;;;;;;15.60;12.10;;;;;;;16.75;73.29;99734.63;5115226;27;20039;-75
2023/09/27 06:40:48;;;;;;;12.90;11.00;;;;;;;17.15;73.60;99793.22;5150006;27;20252;-75
2023/09/27 06:43:15;;;;;;;14.32;11.38;;;;;;;17.17;73.74;99791.28;5150059;27;20039;-75
2023/09/27 06:45:43;;;;;;;14.05;12.52;;;;;;;17.22;74.03;99798.03;5149768;27;20043;-75
2023/09/27 06:48:09;;;;;;;12.77;11.45;;;;;;;17.25;74.26;99800.47;5149860;27;20039;-75
2023/09/27 06:50:41;;;;;;;12.65;11.15;;;;;;;17.05;75.14;99776.97;5149911;27;20043;-75
2023/09/27 06:53:09;;;;;;;15.07;12.32;;;;;;;17.30;75.19;99816.19;5149625;27;20051;-74
2023/09/27 06:55:36;;;;;;;12.48;11.02;;;;;;;17.35;74.49;99808.66;5131527;27;20042;-75
2023/09/27 06:58:03;;;;;;;14.82;12.60;;;;;;;17.35;74.48;99810.50;5131839;27;20049;-75
2023/09/27 07:00:30;;;;;;;14.35;12.73;;;;;;;17.41;74.08;99807.34;5131406;27;20118;-74
2023/09/27 07:02:57;;;;;;;14.70;12.10;;;;;;;17.43;73.86;99811.63;5130913;27;20055;-75
2023/09/27 07:05:26;;;;;;;13.82;12.35;;;;;;;17.43;74.75;99816.97;5131047;27;20042;-75
2023/09/27 07:07:55;;;;;;;13.15;11.82;;;;;;;17.42;74.10;99812.59;5131562;27;20139;-75
2023/09/27 07:10:23;;;;;;;13.80;12.30;;;;;;;17.51;72.91;99819.06;5149774;27;20303;-75
2023/09/27 07:12:50;;;;;;;13.02;11.82;;;;;;;17.54;73.12;99817.00;5130766;27;20177;-75
2023/09/27 07:15:17;;;;;;;12.13;10.18;;;;;;;17.17;74.47;99756.47;5149018;27;20315;-75
2023/09/27 07:17:44;;;;;;;13.80;10.02;;;;;;;17.55;72.90;99825.91;5115201;27;20197;-75
2023/09/27 07:20:23;;;;;;;11.10;10.00;;;;;;;17.20;73.47;99762.47;5115042;27;20125;-75
2023/09/27 07:22:51;;;;;;;12.10;10.95;;;;;;;17.58;72.90;99828.34;5149168;27;20205;-75
2023/09/27 07:25:20;;;;;;;13.02;11.68;;;;;;;17.60;72.22;99821.91;5149630;27;20039;-75
2023/09/27 07:27:48;;;;;;;14.10;11.57;;;;;;;17.63;73.16;99835.09;5131091;27;20087;-75
2023/09/27 07:30:18;;;;;;;15.70;13.30;;;;;;;17.66;71.66;99841.19;5148747;27;20103;-75
2023/09/27 07:32:45;;;;;;;13.93;10.88;;;;;;;17.66;70.63;99835.84;5149360;27;20039;-75
2023/09/27 07:35:14;;;;;;;11.65;10.40;;;;;;;17.73;71.90;99837.06;5147851;27;20054;-75
2023/09/27 07:37:41;;;;;;;15.70;12.35;;;;;;;17.86;69.61;99835.16;5148472;27;20256;-75
2023/09/27 07:40:11;;;;;;;16.80;11.45;;;;;;;17.95;69.02;99832.59;5130713;27;20091;-75
2023/09/27 07:42:41;;;;;;;12.10;10.63;;;;;;;17.98;70.24;99830.66;5148815;27;20043;-75
2023/09/27 07:45:20;;;;;;;14.60;11.48;;;;;;;16.65;68.60;99599.78;5130612;27;20035;-75
2023/09/27 07:47:48;;;;;;;16.88;11.35;;;;;;;18.20;67.95;99838.72;5148817;27;20047;-75
2023/09/27 07:50:15;;;;;;;12.65;9.95;;;;;;;18.34;67.91;99834.94;5148709;27;20235;-75
2023/09/27 07:52:42;;;;;;;14.60;10.15;;;;;;;18.09;67.34;99783.25;5127004;28;20054;-75
2023/09/27 07:55:10;;;;;;;12.38;10.43;;;;;;;17.62;67.62;99688.66;5126374;28;20050;-75
2023/09/27 07:57:42;;;;;;;11.52;10.35;;;;;;;18.50;68.63;99828.22;5127829;28;20097;-75
2023/09/27 08:00:09;;;;;;;11.68;10.57;;;;;;;18.64;68.63;99829.81;5128157;28;20066;-75
2023/09/27 08:02:37;;;;;;;11.68;9.77;;;;;;;18.65;68.05;99838.72;5127729;28;20110;-75
2023/09/27 08:05:06;;;;;;;11.13;10.10;;;;;;;18.64;67.98;99831.66;5127377;28;20261;-75
2023/09/27 08:07:32;;;;;;;18.52;11.27;;;;;;;18.41;65.86;99766.38;5127045;28;20036;-75
2023/09/27 08:09:59;;;;;;;12.50;10.35;;;;;;;18.90;66.17;99833.91;5126172;28;20043;-75
2023/09/27 08:12:28;;;;;;;13.35;9.65;;;;;;;18.89;67.89;99836.75;5126799;28;20055;-75
2023/09/27 08:14:57;;;;;;;13.95;9.23;;;;;;;18.93;65.72;99832.81;5127379;28;20032;-75
2023/09/27 08:17:23;;;;;;;13.13;10.10;;;;;;;19.06;65.34;99829.97;5127094;28;20315;-75
2023/09/27 08:19:50;;;;;;;11.82;9.23;;;;;;;19.26;63.95;99842.59;5126860;28;20311;-75
2023/09/27 08:22:17;;;;;;;13.73;9.77;;;;;;;19.35;63.30;99838.28;5127157;28;20044;-75
2023/09/27 08:24:44;;;;;;;12.38;9.10;;;;;;;19.39;63.82;99837.94;5126018;28;20303;-75
2023/09/27 08:27:11;;;;;;;10.93;9.63;;;;;;;19.52;61.82;99843.13;5126014;28;20069;-75
2023/09/27 08:29:37;;;;;;;11.10;8.80;;;;;;;19.61;61.76;99844.19;5127404;28;20050;-75
2023/09/27 08:32:06;;;;;;;11.63;9.02;;;;;;;19.33;61.84;99784.69;5126817;28;20039;-75
2023/09/27 08:34:33;;;;;;;11.80;8.75;;;;;;;19.68;60.55;99823.88;5125836;28;20207;-75
2023/09/27 08:37:00;;;;;;;11.48;8.98;;;;;;;19.74;61.80;99820.66;5127005;27;20050;-75
2023/09/27 08:39:27;;;;;;;11.32;9.20;;;;;;;19.85;61.04;99836.75;5126496;28;20290;-75
2023/09/27 08:41:55;;;;;;;15.13;9.85;;;;;;;20.02;60.13;99849.59;5126705;28;20066;-75
2023/09/27 08:44:22;;;;;;;18.08;9.52;;;;;;;20.21;59.30;99832.69;5125946;28;20089;-75
2023/09/27 08:46:50;;;;;;;13.82;9.60;;;;;;;20.27;59.37;99832.19;5125922;28;20307;-75
2023/09/27 08:49:20;;;;;;;12.35;9.70;;;;;;;20.21;60.60;99834.53;5125694;28;20043;-75
2023/09/27 08:51:49;;;;;;;10.20;9.05;;;;;;;20.28;60.87;99825.81;5133945;27;20067;-75
2023/09/27 08:54:17;;;;;;;14.57;9.70;;;;;;;20.08;59.35;99764.81;5095811;28;20225;-75
2023/09/27 08:56:48;;;;;;;9.70;8.73;;;;;;;20.63;58.58;99827.22;5129828;28;20215;-75
2023/09/27 08:59:15;;;;;;;12.55;10.07;;;;;;;20.81;57.41;99829.13;5129219;28;20122;-75
2023/09/27 09:01:45;;;;;;;16.25;9.85;;;;;;;20.74;58.16;99824.44;5147214;28;20043;-75
2023/09/27 09:04:12;;;;;;;14.38;8.68;;;;;;;20.18;59.42;99742.34;5112274;28;20047;-75
2023/09/27 09:06:41;;;;;;;11.85;8.82;;;;;;;20.36;60.01;99760.56;5146909;28;20232;-75
2023/09/27 09:09:11;;;;;;;11.15;8.68;;;;;;;20.67;61.12;99823.28;5129612;28;20061;-76
2023/09/27 09:11:39;;;;;;;14.05;9.60;;;;;;;20.75;60.25;99821.59;5128869;28;20325;-75
2023/09/27 09:14:06;;;;;;;15.02;9.05;;;;;;;20.68;60.73;99787.28;5146873;28;20187;-75
2023/09/27 09:16:39;;;;;;;15.30;9.48;;;;;;;20.95;60.06;99816.25;5146469;28;20051;-75
2023/09/27 09:19:19;;;;;;;12.65;10.23;;;;;;;20.64;60.08;99783.16;5128572;28;20122;-75
2023/09/27 09:21:56;;;;;;;11.68;9.07;;;;;;;21.05;59.96;99812.59;5129560;28;20293;-76
2023/09/27 09:24:23;;;;;;;16.02;8.73;;;;;;;21.18;58.67;99815.03;5111718;28;20200;-75
2023/09/27 09:27:04;;;;;;;12.57;8.52;;;;;;;21.19;60.10;99819.44;5128358;28;20046;-76
2023/09/27 09:29:45;;;;;;;10.90;9.15;;;;;;;21.12;59.98;99824.53;5146564;28;20051;-75
2023/09/27 09:32:15;;;;;;;30.73;9.73;;;;;;;21.29;59.18;99825.66;5146568;28;20099;-75
2023/09/27 09:34:43;;;;;;;9.38;8.48;;;;;;;21.19;60.17;99826.66;5146846;28;20054;-75
2023/09/27 09:37:27;;;;;;;10.13;8.18;;;;;;;21.27;60.43;99826.81;5146691;28;20045;-75
2023/09/27 09:39:54;;;;;;;10.20;7.95;;;;;;;21.26;61.13;99815.16;5127025;28;20055;-75
2023/09/27 09:42:32;;;;;;;10.15;9.13;;;;;;;21.24;61.80;99811.75;5153240;28;20043;-75
2023/09/27 09:45:00;;;;;;;11.45;8.98;;;;;;;21.28;60.17;99809.63;5150030;28;20046;-76
2023/09/27 09:47:29;;;;;;;9.40;8.38;;;;;;;21.37;61.02;99825.81;5128637;28;20100;-76
2023/09/27 09:49:55;;;;;;;8.98;8.13;;;;;;;21.48;59.69;99813.19;5146599;28;20183;-75
2023/09/27 09:52:27;;;;;;;12.10;9.30;;;;;;;21.56;59.36;99819.56;5124774;28;20238;-75
2023/09/27 09:54:57;;;;;;;12.80;9.15;;;;;;;21.78;57.98;99813.84;5124746;28;20123;-76
2023/09/27 09:57:32;;;;;;;10.65;8.60;;;;;;;21.51;59.16;99781.38;5126048;28;20211;-76
2023/09/27 10:00:11;;;;;;;11.30;9.32;;;;;;;21.95;57.91;99814.97;5127546;28;20039;-77
2023/09/27 10:02:47;;;;;;;12.65;8.73;;;;;;;21.86;60.05;99815.00;5129172;28;20199;-76
2023/09/27 10:05:15;;;;;;;8.35;7.03;;;;;;;21.76;61.40;99812.28;5129361;28;20032;-76
2023/09/27 10:07:45;;;;;;;11.15;7.97;;;;;;;21.70;60.04;99799.38;5129207;27;20059;-76
2023/09/27 10:10:13;;;;;;;13.60;8.32;;;;;;;22.01;57.42;99808.16;5129080;28;20104;-76
2023/09/27 10:12:41;;;;;;;12.68;7.60;;;;;;;21.70;57.66;99775.09;5128961;28;20107;-75
2023/09/27 10:15:09;;;;;;;16.10;8.85;;;;;;;21.96;59.55;99808.59;5127568;28;20308;-76
2023/09/27 10:17:36;;;;;;;9.55;7.28;;;;;;;21.51;56.49;99699.63;5128506;28;20039;-75
2023/09/27 10:20:14;;;;;;;8.07;6.57;;;;;;;22.28;55.23;99805.50;5128408;28;20114;-75
2023/09/27 10:22:43;;;;;;;13.27;7.25;;;;;;;22.28;55.39;99797.38;5128900;28;20097;-75
2023/09/27 10:25:32;;;;;;;7.15;6.45;;;;;;;22.30;56.47;99797.25;5127667;28;20039;-75
2023/09/27 10:28:05;;;;;;;9.38;7.30;;;;;;;22.18;57.11;99764.19;5127894;28;20071;-75
2023/09/27 10:31:06;;;;;;;11.53;6.83;;;;;;;22.01;55.79;99751.47;5129364;28;20218;-75
2023/09/27 10:33:33;;;;;;;8.75;7.40;;;;;;;22.51;54.91;99797.03;5128735;28;20051;-76
2023/09/27 10:36:29;;;;;;;8.93;6.45;;;;;;;22.34;57.72;99780.59;5127385;28;20036;-76
2023/09/27 10:39:06;;;;;;;10.35;7.28;;;;;;;22.70;54.21;99778.91;5128398;28;20288;-76
2023/09/27 10:41:48;;;;;;;9.77;6.28;;;;;;;22.69;53.91;99763.69;5128659;28;20047;-75
2023/09/27 10:44:28;;;;;;;10.35;6.35;;;;;;;22.21;55.08;99690.16;5127527;28;20108;-75
2023/09/27 10:46:55;;;;;;;8.07;6.35;;;;;;;22.44;55.33;99733.81;5128252;27;20039;-75
2023/09/27 10:49:22;;;;;;;8.82;7.07;;;;;;;22.69;54.82;99769.09;5128502;28;20199;-75
2023/09/27 10:51:50;;;;;;;9.82;6.30;;;;;;;22.74;55.78;99763.22;5135893;27;20051;-75
2023/09/27 10:54:22;;;;;;;11.55;6.85;;;;;;;22.97;52.06;99755.53;5130936;27;20092;-76
2023/09/27 10:56:52;;;;;;;12.38;6.25;;;;;;;23.08;52.41;99751.75;5148765;27;20039;-75
2023/09/27 10:59:26;;;;;;;9.75;6.97;;;;;;;22.55;51.67;99664.25;5149187;27;20043;-75
2023/09/27 11:01:53;;;;;;;7.57;6.05;;;;;;;22.96;50.49;99695.22;5148526;27;20206;-75
2023/09/27 11:04:24;;;;;;;8.90;6.60;;;;;;;23.07;54.08;99737.38;5149372;27;20039;-76
2023/09/27 11:06:51;;;;;;;10.02;6.25;;;;;;;23.13;52.62;99739.47;5148617;27;20045;-75
2023/09/27 11:09:20;;;;;;;6.85;6.13;;;;;;;23.10;51.47;99739.78;5148606;27;20050;-75
2023/09/27 11:11:51;;;;;;;6.82;6.10;;;;;;;23.01;50.33;99692.06;5148244;27;20050;-75
2023/09/27 11:14:29;;;;;;;11.30;6.15;;;;;;;23.05;51.02;99702.41;5148339;27;20063;-75
2023/09/27 11:16:56;;;;;;;7.97;6.03;;;;;;;22.78;50.33;99685.41;5129904;27;20295;-75
2023/09/27 11:19:30;;;;;;;8.40;5.22;;;;;;;22.93;51.86;99722.56;5130351;27;20039;-75
2023/09/27 11:21:58;;;;;;;7.47;5.45;;;;;;;22.72;49.31;99676.06;5147933;27;20322;-75
2023/09/27 11:24:37;;;;;;;8.35;5.45;;;;;;;22.71;50.27;99668.97;5148024;27;20042;-75
2023/09/27 11:27:04;;;;;;;7.25;5.40;;;;;;;23.28;47.14;99710.88;5147861;27;20031;-75